Preveza, Greece
Current Conditions -  °F | °C
As of 4:50 PM on Monday 22 Dec 2014 (Local Time) from LGPZ Reporting Station
Clear Clear  
Wind Chill: 55°   Ceiling: Unl
Heat Index: 55°   Visibility: 6mi
Dew Point: 25°   Wind: 0mph
Humidity: 31%   Direction: NA
Pressure: 30.36"   Gusts: NA
Location:  38.95°N, 20.75°E
Report Text: LGPZ 221350Z 00000KT CAVOK 13/M04 Q1028
Loading
Personal Weather Stations






























Interactive Weather Map New forecast layout! Learn more

10-Day Weather Forecast

Advertisements
Track Severe Weather on mobile